Time;durP1;ratioP1;P1;durP2;ratioP2;P2;SDS_P1;SDS_P2;PMS_P1;PMS_P2;Temp;Humidity;BMP_temperature;BMP_pressure;BME280_temperature;BME280_humidity;BME280_pressure;Samples;Min_cycle;Max_cycle;Signal;HPM_P1;HPM_P2
2021/10/20 06:57:54;;;;;;;4.10;2.40;;;15.90;99.90;;;;;;3460950;23;20235;-70
2021/10/20 07:00:21;;;;;;;5.20;2.13;;;15.80;99.90;;;;;;4951098;29;20240;-73
2021/10/20 07:02:48;;;;;;;3.73;2.37;;;15.70;99.90;;;;;;4955613;29;20204;-73
2021/10/20 07:05:15;;;;;;;4.10;2.20;;;15.60;99.90;;;;;;4955103;28;20567;-71
2021/10/20 07:07:41;;;;;;;5.87;2.27;;;15.60;99.90;;;;;;4939700;29;20213;-74
2021/10/20 07:10:09;;;;;;;4.77;2.57;;;15.60;99.90;;;;;;4955027;28;20235;-76
2021/10/20 07:12:37;;;;;;;5.00;2.70;;;15.50;99.90;;;;;;4954394;28;20204;-71
2021/10/20 07:15:06;;;;;;;3.47;2.17;;;15.40;99.90;;;;;;4955679;29;20291;-73
2021/10/20 07:17:33;;;;;;;4.13;2.17;;;15.50;99.90;;;;;;4955932;29;20266;-74
2021/10/20 07:20:00;;;;;;;3.87;2.47;;;15.40;99.90;;;;;;4956193;29;20769;-73
2021/10/20 07:22:28;;;;;;;3.97;2.20;;;15.40;99.90;;;;;;4955847;29;20577;-75
2021/10/20 07:24:55;;;;;;;4.93;2.70;;;15.40;99.90;;;;;;4955947;29;20223;-75
2021/10/20 07:27:22;;;;;;;4.63;2.27;;;15.40;99.90;;;;;;4955973;29;20218;-75
2021/10/20 07:29:49;;;;;;;3.50;2.23;;;15.40;99.90;;;;;;4955941;29;20207;-74
2021/10/20 07:32:17;;;;;;;3.57;2.40;;;15.40;99.90;;;;;;4955869;29;20306;-75
2021/10/20 07:34:44;;;;;;;4.57;2.57;;;15.40;99.90;;;;;;4955727;28;20609;-73
2021/10/20 07:37:11;;;;;;;3.50;2.47;;;15.40;99.90;;;;;;4955745;29;20218;-72
2021/10/20 07:39:38;;;;;;;3.70;2.60;;;15.40;99.90;;;;;;4956080;29;20242;-74
2021/10/20 07:42:05;;;;;;;4.37;2.57;;;15.40;99.90;;;;;;4955845;28;20208;-71
2021/10/20 07:44:32;;;;;;;4.77;2.60;;;15.40;99.90;;;;;;4955302;29;20666;-74
2021/10/20 07:46:59;;;;;;;7.10;2.27;;;15.40;99.90;;;;;;4955778;28;20207;-75
2021/10/20 07:49:27;;;;;;;5.63;2.30;;;15.40;99.90;;;;;;4955972;29;20729;-74
2021/10/20 07:51:56;;;;;;;6.23;2.80;;;15.40;99.90;;;;;;4955512;29;20222;-75
2021/10/20 07:54:24;;;;;;;3.27;2.10;;;15.40;99.90;;;;;;4955276;29;20599;-75
2021/10/20 07:56:51;;;;;;;4.03;2.47;;;15.30;99.90;;;;;;4950221;29;20214;-73
2021/10/20 07:59:18;;;;;;;4.40;2.60;;;15.30;99.90;;;;;;4954766;29;20250;-72
2021/10/20 08:01:45;;;;;;;4.00;2.57;;;15.30;99.90;;;;;;4955637;29;20311;-73
2021/10/20 08:04:12;;;;;;;3.40;2.57;;;15.30;99.90;;;;;;4955005;29;20203;-73
2021/10/20 08:06:40;;;;;;;2.93;2.10;;;15.40;99.90;;;;;;4954977;28;20228;-72
2021/10/20 08:09:07;;;;;;;3.50;2.33;;;15.40;99.90;;;;;;4955218;29;20212;-73
2021/10/20 08:11:34;;;;;;;4.23;2.70;;;15.40;99.90;;;;;;4955044;29;20218;-72
2021/10/20 08:14:01;;;;;;;3.43;2.40;;;15.50;99.90;;;;;;4955059;29;20204;-75
2021/10/20 08:16:28;;;;;;;4.87;2.60;;;15.50;99.90;;;;;;4954649;28;20228;-76
2021/10/20 08:18:55;;;;;;;6.27;2.40;;;15.70;99.90;;;;;;4954995;29;20216;-75
2021/10/20 08:21:22;;;;;;;3.50;2.10;;;15.80;99.90;;;;;;4955179;29;20207;-85
2021/10/20 08:23:50;;;;;;;3.30;2.20;;;15.90;99.90;;;;;;4955055;29;20208;-78
2021/10/20 08:26:17;;;;;;;4.20;2.17;;;15.90;99.90;;;;;;4954458;28;20314;-72
2021/10/20 08:28:44;;;;;;;2.67;2.07;;;16.10;99.90;;;;;;4954722;29;20214;-74
2021/10/20 08:31:11;;;;;;;3.17;2.17;;;16.40;99.90;;;;;;4954808;29;20212;-74
2021/10/20 08:33:37;;;;;;;4.93;2.07;;;16.80;99.90;;;;;;4954865;29;20203;-74
2021/10/20 08:36:04;;;;;;;4.63;2.70;;;17.00;99.90;;;;;;4954604;28;20238;-75
2021/10/20 08:38:31;;;;;;;3.40;2.07;;;17.20;99.90;;;;;;4954768;29;20204;-75
2021/10/20 08:40:59;;;;;;;4.37;2.20;;;17.20;99.90;;;;;;4954603;29;20326;-74
2021/10/20 08:43:26;;;;;;;3.77;2.00;;;17.30;99.90;;;;;;4954988;29;20219;-73
2021/10/20 08:45:53;;;;;;;2.00;1.53;;;17.30;99.90;;;;;;4954517;28;20235;-73
2021/10/20 08:48:21;;;;;;;4.40;2.03;;;17.10;99.90;;;;;;4951031;29;20212;-71
2021/10/20 08:50:51;;;;;;;4.00;2.03;;;17.00;99.90;;;;;;4953321;29;20630;-70
2021/10/20 08:53:18;;;;;;;3.40;2.20;;;17.00;99.90;;;;;;4953021;29;20679;-75
2021/10/20 08:55:47;;;;;;;2.50;1.73;;;16.70;99.90;;;;;;4953091;28;20318;-73
2021/10/20 08:58:16;;;;;;;3.37;1.90;;;16.70;99.90;;;;;;4952548;29;20216;-72
2021/10/20 09:00:44;;;;;;;3.57;2.20;;;16.70;99.90;;;;;;4952140;28;20722;-70
2021/10/20 09:03:12;;;;;;;3.43;2.03;;;16.70;99.90;;;;;;4953434;29;20211;-71
2021/10/20 09:05:39;;;;;;;3.73;2.23;;;16.60;99.90;;;;;;4954062;29;20238;-74
2021/10/20 09:08:07;;;;;;;4.17;1.67;;;16.50;99.90;;;;;;4954051;29;20215;-73
2021/10/20 18:17:16;;;;;;;4.93;2.10;;;16.50;99.90;;;;;;4305330;26;20223;-78
2021/10/20 18:19:43;;;;;;;3.43;1.67;;;16.60;99.90;;;;;;4977334;28;20282;-80
2021/10/20 18:22:10;;;;;;;4.83;1.80;;;16.50;99.90;;;;;;4976816;28;20281;-69
2021/10/20 18:24:37;;;;;;;2.93;1.50;;;16.50;99.90;;;;;;4976806;28;20289;-76
2021/10/20 18:27:05;;;;;;;10.20;5.10;;;16.50;99.90;;;;;;4976524;28;20713;-75
2021/10/20 18:29:31;;;;;;;4.53;1.93;;;16.40;99.90;;;;;;4976440;28;20207;-75
2021/10/20 18:31:58;;;;;;;3.87;1.70;;;16.40;99.90;;;;;;4976739;28;20258;-70
2021/10/20 18:34:27;;;;;;;5.53;2.00;;;16.40;99.90;;;;;;4976544;28;20214;-77
2021/10/20 18:36:54;;;;;;;4.17;1.60;;;16.40;99.90;;;;;;4976613;28;20298;-75
2021/10/20 18:39:22;;;;;;;5.37;1.73;;;16.40;99.90;;;;;;4976544;28;20662;-75
2021/10/20 18:41:49;;;;;;;6.20;2.10;;;16.30;99.90;;;;;;4976186;28;20713;-75
2021/10/20 18:44:16;;;;;;;2.47;1.47;;;16.40;99.90;;;;;;4976679;28;20609;-73
2021/10/20 18:46:43;;;;;;;4.13;1.30;;;16.50;99.90;;;;;;4977060;28;20265;-80
2021/10/20 18:49:10;;;;;;;5.00;1.47;;;16.30;99.90;;;;;;4976361;28;20298;-78
2021/10/20 18:51:39;;;;;;;2.93;1.53;;;16.20;99.90;;;;;;4975901;28;20203;-71
2021/10/20 18:54:05;;;;;;;3.30;1.73;;;16.10;99.90;;;;;;4976494;28;20708;-76
2021/10/20 18:56:32;;;;;;;5.50;1.80;;;16.10;99.90;;;;;;4980318;28;20696;-75
2021/10/20 18:59:00;;;;;;;6.80;3.00;;;16.10;99.90;;;;;;4979443;28;20211;-78
2021/10/20 19:01:28;;;;;;;5.20;2.20;;;16.10;99.90;;;;;;4981365;28;20254;-79
2021/10/20 19:03:55;;;;;;;4.57;1.80;;;16.20;99.90;;;;;;4981723;28;20233;-78
2021/10/20 19:06:27;;;;;;;3.57;1.77;;;16.30;99.90;;;;;;4983217;28;20213;-77
2021/10/20 19:08:56;;;;;;;3.83;2.13;;;16.30;99.90;;;;;;4982798;28;20207;-80
2021/10/20 19:11:23;;;;;;;5.30;2.17;;;16.30;99.90;;;;;;4978323;28;20306;-81
2021/10/20 19:13:51;;;;;;;5.13;2.37;;;16.40;99.90;;;;;;4979670;28;20257;-78
2021/10/20 19:16:19;;;;;;;3.50;1.83;;;16.40;99.90;;;;;;4976552;28;20223;-73
2021/10/20 19:18:48;;;;;;;8.03;2.20;;;16.40;99.90;;;;;;4975973;28;20207;-80
2021/10/20 19:21:16;;;;;;;2.70;1.70;;;16.30;99.90;;;;;;4975688;28;20238;-78
2021/10/20 19:23:43;;;;;;;2.40;1.60;;;16.30;99.90;;;;;;4975378;28;20231;-73
2021/10/20 19:26:12;;;;;;;5.67;2.00;;;16.30;99.90;;;;;;4976099;28;20214;-82
2021/10/20 19:28:39;;;;;;;3.50;1.70;;;16.30;99.90;;;;;;4975841;28;20252;-81
2021/10/20 19:31:07;;;;;;;5.47;1.70;;;16.30;99.90;;;;;;4975354;28;20207;-77
2021/10/20 19:33:35;;;;;;;3.37;1.63;;;16.30;99.90;;;;;;4975382;28;20230;-80
2021/10/20 19:36:02;;;;;;;2.80;1.60;;;16.20;99.90;;;;;;4975379;28;20214;-78
2021/10/20 19:38:29;;;;;;;2.80;1.70;;;16.20;99.90;;;;;;4975815;28;20213;-80
2021/10/20 19:40:56;;;;;;;4.57;1.87;;;16.10;99.90;;;;;;4975614;28;20231;-80
2021/10/20 19:43:24;;;;;;;3.07;1.50;;;16.00;99.90;;;;;;4975547;28;20219;-80
2021/10/20 19:45:52;;;;;;;3.43;1.80;;;16.00;99.90;;;;;;4974884;28;20207;-80
2021/10/20 19:48:18;;;;;;;3.87;2.20;;;15.90;99.90;;;;;;4974896;28;20569;-80
2021/10/20 19:50:45;;;;;;;4.57;1.83;;;15.90;99.90;;;;;;4974845;28;20298;-76
2021/10/20 19:53:13;;;;;;;6.40;2.40;;;15.90;99.90;;;;;;4975312;28;20586;-73
2021/10/20 19:55:40;;;;;;;4.40;2.23;;;16.00;99.90;;;;;;4975173;28;20217;-79
2021/10/20 19:58:07;;;;;;;3.47;1.57;;;16.00;99.90;;;;;;4975102;28;20207;-74
2021/10/20 20:00:35;;;;;;;4.80;1.93;;;15.90;99.90;;;;;;4975027;28;20231;-79
2021/10/20 20:03:02;;;;;;;3.10;2.20;;;15.80;99.90;;;;;;4974682;28;20227;-80
2021/10/20 20:05:30;;;;;;;4.37;2.00;;;15.80;99.90;;;;;;4974664;28;20219;-80
2021/10/20 20:07:56;;;;;;;6.10;2.10;;;15.80;99.90;;;;;;4974970;28;20211;-79
2021/10/20 20:10:23;;;;;;;3.27;2.00;;;15.80;99.90;;;;;;4975085;28;20207;-77
2021/10/20 20:12:50;;;;;;;5.43;2.40;;;15.80;99.90;;;;;;4974889;28;20227;-74
2021/10/20 20:15:17;;;;;;;2.57;1.57;;;15.80;99.90;;;;;;4974721;28;20222;-77
2021/10/20 20:17:45;;;;;;;3.47;2.00;;;15.80;99.90;;;;;;4974559;28;20210;-77
2021/10/20 20:20:13;;;;;;;5.97;2.47;;;15.70;99.90;;;;;;4974469;28;20203;-79
2021/10/20 20:22:40;;;;;;;4.20;2.03;;;15.70;99.90;;;;;;4974628;28;20713;-80
2021/10/20 20:25:08;;;;;;;5.07;2.53;;;15.70;99.90;;;;;;4974491;28;20673;-75
2021/10/20 20:27:35;;;;;;;3.93;2.07;;;15.70;99.90;;;;;;4974579;28;20217;-80
2021/10/20 20:30:02;;;;;;;3.33;1.70;;;15.70;99.90;;;;;;4974149;28;20677;-79
2021/10/20 20:32:29;;;;;;;4.73;1.93;;;15.80;99.90;;;;;;4974149;28;20219;-78
2021/10/20 20:34:58;;;;;;;4.73;2.17;;;15.80;99.90;;;;;;4974497;28;20685;-71
2021/10/20 20:37:26;;;;;;;5.83;2.10;;;15.80;99.90;;;;;;4975300;28;20218;-79
2021/10/20 20:39:53;;;;;;;3.53;2.03;;;15.80;99.90;;;;;;4974299;28;20547;-73
2021/10/20 20:42:20;;;;;;;8.20;1.87;;;15.90;99.90;;;;;;4974725;28;20322;-78
2021/10/20 20:44:48;;;;;;;3.23;2.00;;;15.90;99.90;;;;;;4974597;28;20211;-75
2021/10/20 20:47:15;;;;;;;3.93;1.77;;;15.90;99.90;;;;;;4974234;28;20207;-74
2021/10/20 20:49:42;;;;;;;9.20;3.10;;;15.90;99.90;;;;;;4974914;28;20207;-75
2021/10/20 20:52:11;;;;;;;4.60;2.00;;;16.00;99.90;;;;;;4974275;28;20757;-71
2021/10/20 20:54:38;;;;;;;5.93;1.93;;;16.00;99.90;;;;;;4975043;28;20215;-82
2021/10/20 20:57:05;;;;;;;3.53;2.03;;;16.00;99.90;;;;;;4977742;28;20302;-79
2021/10/20 20:59:32;;;;;;;3.70;1.93;;;16.00;99.90;;;;;;4974715;28;20246;-73
2021/10/20 21:01:59;;;;;;;4.30;2.20;;;16.00;99.90;;;;;;4973899;28;20245;-72
2021/10/20 21:04:26;;;;;;;5.67;1.67;;;16.00;99.90;;;;;;4974279;28;20218;-70
2021/10/20 21:06:53;;;;;;;4.93;1.70;;;16.00;99.90;;;;;;4974181;28;20218;-70
2021/10/20 21:09:23;;;;;;;3.73;2.10;;;15.90;99.90;;;;;;4974024;28;20301;-74
2021/10/20 21:11:49;;;;;;;4.23;1.70;;;16.00;99.90;;;;;;4973912;28;20211;-82
